| time (UTC) | temp F | wind direction | speed MPH | gust MPH | rain 1hr in | rain 24hr in | rain mn in | humidity % | barometer mb |
| 20260509150047 | 50 | 58 | 0.0 | 1.0 | 0.04 | 0.43 | 0.25 | 1 | 1007.4 |
| 20260509144543 | 50 | 128 | 0.0 | 0.0 | 0.03 | 0.41 | 0.23 | 1 | 1007.4 |
| 20260509143038 | 50 | 143 | 0.0 | 0.0 | 0.03 | 0.40 | 0.22 | 1 | 1007.5 |
| 20260509141533 | 50 | 174 | 0.0 | 1.0 | 0.04 | 0.40 | 0.22 | 1 | 1007.6 |
| 20260509140029 | 49 | 25 | 0.0 | 0.0 | 0.03 | 0.39 | 0.21 | 1 | 1007.6 |
| 20260509134525 | 49 | 8 | 0.0 | 1.0 | 0.02 | 0.38 | 0.20 | 1 | 1007.6 |
| 20260509133022 | 49 | 134 | 0.0 | 0.0 | 0.02 | 0.37 | 0.19 | 1 | 1007.7 |
| 20260509131515 | 49 | 141 | 0.0 | 0.0 | 0.01 | 0.36 | 0.18 | 1 | 1007.8 |
| 20260509130013 | 48 | 224 | 0.0 | 2.0 | 0.02 | 0.36 | 0.18 | 1 | 1007.9 |
| 20260509124507 | 48 | 202 | 0.0 | 0.0 | 0.02 | 0.36 | 0.18 | 1 | 1007.9 |
| 20260509123007 | 48 | 100 | 0.0 | 0.0 | 0.01 | 0.35 | 0.17 | 1 | 1008.0 |
| 20260509121558 | 47 | 100 | 0.0 | 0.0 | 0.01 | 0.35 | 0.17 | 1 | 1008.1 |
| 20260509120058 | 47 | 100 | 0.0 | 0.0 | 0.00 | 0.34 | 0.16 | 1 | 1008.1 |
| 20260509114549 | 47 | 100 | 0.0 | 0.0 | 0.01 | 0.34 | 0.16 | 1 | 1008.1 |
| 20260509113045 | 46 | 100 | 0.0 | 0.0 | 0.02 | 0.34 | 0.16 | 1 | 1008.2 |
| 20260509111541 | 46 | 100 | 0.0 | 0.0 | 0.03 | 0.34 | 0.16 | 1 | 1008.4 |
| 20260509110037 | 46 | 100 | 0.0 | 0.0 | 0.06 | 0.34 | 0.16 | 1 | 1008.4 |
| 20260509104532 | 46 | 100 | 0.0 | 0.0 | 0.06 | 0.33 | 0.15 | 1 | 1008.3 |
| 20260509103028 | 46 | 100 | 0.0 | 0.0 | 0.06 | 0.32 | 0.14 | 1 | 1008.4 |
| 20260509101525 | 46 | 100 | 0.0 | 0.0 | 0.06 | 0.30 | 0.12 | 1 | 1008.4 |
| 20260509100022 | 46 | 100 | 0.0 | 0.0 | 0.05 | 0.28 | 0.10 | 1 | 1008.6 |
| 20260509094514 | 46 | 100 | 0.0 | 0.0 | 0.05 | 0.28 | 0.09 | 1 | 1008.7 |
| 20260509093010 | 46 | 100 | 0.0 | 0.0 | 0.04 | 0.27 | 0.08 | 1 | 1008.8 |
| 20260509091506 | 46 | 100 | 0.0 | 0.0 | 0.02 | 0.25 | 0.06 | 1 | 1008.8 |
| 20260509090003 | 46 | 100 | 0.0 | 0.0 | 0.01 | 0.24 | 0.05 | 1 | 1008.8 |
| 20260509084557 | 45 | 100 | 0.0 | 0.0 | 0.00 | 0.23 | 0.04 | 1 | 1008.9 |
| 20260509083053 | 46 | 100 | 0.0 | 0.0 | 0.00 | 0.23 | 0.04 | 1 | 1008.9 |
| 20260509081552 | 46 | 100 | 0.0 | 0.0 | 0.00 | 0.23 | 0.04 | 1 | 1008.8 |
| 20260509080043 | 46 | 100 | 0.0 | 0.0 | 0.00 | 0.23 | 0.04 | 1 | 1008.9 |
| 20260509074540 | 46 | 100 | 0.0 | 0.0 | 0.00 | 0.23 | 0.04 | 1 | 1009.1 |
| 20260509073035 | 46 | 100 | 0.0 | 0.0 | 0.00 | 0.23 | 0.04 | 1 | 1008.9 |
| 20260509071530 | 46 | 100 | 0.0 | 0.0 | 0.00 | 0.23 | 0.04 | 1 | 1009.1 |
| 20260509070026 | 46 | 100 | 0.0 | 0.0 | 0.00 | 0.23 | 0.04 | 1 | 1009.2 |
| 20260509064524 | 46 | 100 | 0.0 | 0.0 | 0.00 | 0.23 | 0.04 | 1 | 1009.4 |
| 20260509063018 | 46 | 100 | 0.0 | 0.0 | 0.00 | 0.23 | 0.04 | 1 | 1009.6 |
| 20260509061513 | 46 | 87 | 0.0 | 0.0 | 0.00 | 0.23 | 0.04 | 1 | 1009.7 |
| 20260509060009 | 46 | 77 | 0.0 | 0.0 | 0.01 | 0.23 | 0.04 | 1 | 1009.8 |
| 20260509054504 | 46 | 134 | 0.0 | 0.0 | 0.02 | 0.23 | 0.04 | 1 | 1010.3 |
| 20260509053200 | 46 | 134 | 0.0 | 0.0 | 0.02 | 0.23 | 0.04 | 1 | 1010.7 |
| 20260509051558 | 46 | 134 | 0.0 | 0.0 | 0.03 | 0.23 | 0.04 | 1 | 1010.9 |
| 20260509050107 | 47 | 134 | 0.0 | 0.0 | 0.03 | 0.22 | 0.03 | 1 | 1011.0 |
| 20260509044557 | 47 | 134 | 0.0 | 0.0 | 0.03 | 0.21 | 0.02 | 1 | 1011.1 |
| 20260509043042 | 47 | 134 | 0.0 | 0.0 | 0.03 | 0.20 | 0.01 | 1 | 1011.3 |
| 20260509041538 | 47 | 134 | 0.0 | 0.0 | 0.04 | 0.20 | 0.01 | 1 | 1011.4 |
| 20260509040033 | 47 | 134 | 0.0 | 0.0 | 0.04 | 0.19 | 0.00 | 1 | 1011.8 |
| 20260509034633 | 47 | 134 | 0.0 | 0.0 | 0.04 | 0.18 | 0.18 | 1 | 1011.8 |
| 20260509033032 | 47 | 134 | 0.0 | 0.0 | 0.04 | 0.17 | 0.17 | 1 | 1011.6 |
| 20260509031528 | 47 | 134 | 0.0 | 0.0 | 0.03 | 0.16 | 0.16 | 1 | 1011.5 |
| 20260509030034 | 47 | 134 | 0.0 | 0.0 | 0.02 | 0.15 | 0.15 | 1 | 1011.7 |
| 20260509024519 | 47 | 134 | 0.0 | 0.0 | 0.01 | 0.14 | 0.14 | 1 | 1011.8 |
| 20260509023024 | 47 | 134 | 0.0 | 0.0 | 0.00 | 0.13 | 0.13 | 1 | 1011.9 |
| 20260509021510 | 46 | 134 | 0.0 | 0.0 | 0.01 | 0.13 | 0.13 | 1 | 1011.8 |
| 20260509020010 | 47 | 134 | 0.0 | 0.0 | 0.01 | 0.13 | 0.13 | 1 | 1011.4 |
| 20260509014502 | 47 | 134 | 0.0 | 0.0 | 0.01 | 0.13 | 0.13 | 1 | 1011.2 |
| 20260509013101 | 47 | 134 | 0.0 | 0.0 | 0.01 | 0.13 | 0.13 | 1 | 1011.3 |
| 20260509011552 | 47 | 293 | 0.0 | 0.0 | 0.00 | 0.12 | 0.12 | 6 | 1011.4 |
| 20260509010049 | 47 | 290 | 0.0 | 0.0 | 0.01 | 0.12 | 0.12 | 15 | 1011.0 |
| 20260509004544 | 47 | 240 | 0.0 | 0.0 | 0.02 | 0.12 | 0.12 | 28 | 1010.5 |
| 20260509003055 | 47 | 250 | 0.0 | 0.0 | 0.02 | 0.12 | 0.12 | 36 | 1010.5 |
| 20260509001535 | 48 | 219 | 0.0 | 0.0 | 0.02 | 0.12 | 0.12 | 49 | 1010.2 |
| 20260509000037 | 49 | 192 | 0.0 | 0.0 | 0.01 | 0.11 | 0.11 | 69 | 1010.3 |
| 20260508234535 | 50 | 244 | 0.0 | 1.0 | 0.00 | 0.10 | 0.10 | 74 | 1010.3 |
| 20260508233022 | 50 | 3 | 0.0 | 0.0 | 0.00 | 0.10 | 0.10 | 75 | 1010.4 |
| 20260508231517 | 50 | 155 | 0.0 | 0.0 | 0.00 | 0.10 | 0.10 | 76 | 1010.4 |
| 20260508230013 | 50 | 211 | 0.0 | 0.0 | 0.00 | 0.10 | 0.10 | 73 | 1010.3 |
| 20260508224509 | 50 | 220 | 0.0 | 0.0 | 0.00 | 0.10 | 0.10 | 62 | 1010.3 |
| 20260508223005 | 50 | 250 | 0.0 | 1.0 | 0.00 | 0.10 | 0.10 | 60 | 1010.2 |
| 20260508221606 | 51 | 227 | 0.0 | 1.0 | 0.00 | 0.10 | 0.10 | 58 | 1010.3 |
| 20260508220055 | 51 | 307 | 0.0 | 1.0 | 0.00 | 0.10 | 0.10 | 48 | 1010.2 |
| 20260508214557 | 51 | 218 | 0.0 | 0.0 | 0.00 | 0.10 | 0.10 | 37 | 1010.2 |
| 20260508213047 | 51 | 105 | 0.0 | 0.0 | 0.00 | 0.10 | 0.10 | 28 | 1010.1 |
| 20260508211543 | 50 | 141 | 0.0 | 0.0 | 0.00 | 0.10 | 0.10 | 15 | 1010.3 |
| 20260508210038 | 49 | 300 | 0.0 | 0.0 | 0.00 | 0.10 | 0.10 | 20 | 1010.2 |
| 20260508204536 | 49 | 247 | 0.0 | 0.0 | 0.04 | 0.10 | 0.10 | 28 | 1010.3 |
| 20260508203031 | 49 | 269 | 0.0 | 0.0 | 0.04 | 0.10 | 0.10 | 31 | 1010.3 |
| 20260508201527 | 49 | 232 | 0.0 | 0.0 | 0.04 | 0.10 | 0.10 | 49 | 1010.2 |